Terminal Aerodrome Forecast
Issued by NWS

Home | Current Version | Previous Version | Text Only | Print | Product List | Glossary On
Versions: 1 2 3 4 5 6 7 8 9 10 11 12 13 14
478
FTUS43 KOAX 060529
TAFBFF
TAF
KBFF 060529Z 0606/0706 31006KT P6SM SCT250
     FM061700 29022G28KT P6SM BKN200=

USA.gov is the U.S. government's official web portal to all federal, state and local government web resources and services.